ローマ/フィウミチーノ の空港の天気 - METARとTAF

ローマ・レオナルド・ダ・ビンチ国際空港 ( LIRF / FCO ) - イタリア ローマ
飛行場実況気象(Metar)
観測時間05/18 00:20 CEST (05/17 22:20 UTC)
風向・風速北北西 2m/s
視程10km以上
天気現象
なし
気温12℃
湿度77%
気圧1013hPa
METARLIRF 172220Z 33004KT CAVOK 12/08 Q1013 NOSIG
過去の天気等 Google飛行場航空写真 Wunderground天気予報

過去48時間のMETAR

飛行場予報(TAF)
発表時間: 5/17 19:00 CEST (5/17 17:00 UTC)
予報対象時間: 17日20時 CEST ~ 19日2時 CEST
風向・風速西北西 6m/s
視程10km以上
少しの雲 雲底高度 910m
17日21時 CEST ~ 17日23時 CEST に徐々に
風向・風速不定 3m/s
18日9時 CEST ~ 18日11時 CEST に徐々に
風向・風速西南西 7m/s
18日21時 CEST ~ 18日23時 CEST に徐々に
風向・風速不定 3m/s
TAF LIRF 171700Z 1718/1824 29012KT 9999 FEW030
BECMG 1719/1721 VRB05KT
BECMG 1807/1809 24014KT
BECMG 1819/1821 VRB05KT